createdAt,value
2023-08-11T00:04:20.571Z,11.61
2023-08-11T00:14:29.394Z,11.56
2023-08-11T00:24:31.328Z,11.58
2023-08-11T00:34:35.243Z,11.80
2023-08-11T00:44:37.258Z,11.54
2023-08-11T00:54:47.750Z,12.18
2023-08-11T01:04:50.057Z,11.75
2023-08-11T01:15:27.019Z,11.52
2023-08-11T01:25:31.233Z,11.23
2023-08-11T01:35:58.605Z,11.14
2023-08-11T01:46:00.916Z,11.04
2023-08-11T01:56:04.296Z,10.95
2023-08-11T02:06:07.234Z,10.69
2023-08-11T02:16:17.251Z,10.56
2023-08-11T02:26:19.220Z,10.59
2023-08-11T02:36:22.226Z,10.63
2023-08-11T02:46:25.143Z,10.72
2023-08-11T02:56:27.112Z,10.65
2023-08-11T03:06:29.277Z,10.36
2023-08-11T03:16:34.029Z,10.47
2023-08-11T03:26:35.951Z,10.54
2023-08-11T03:36:37.902Z,10.51
2023-08-11T03:46:42.005Z,11.03
2023-08-11T03:56:45.087Z,11.86
2023-08-11T04:06:53.342Z,12.50
2023-08-11T04:16:55.672Z,12.94
2023-08-11T04:26:57.609Z,13.87
2023-08-11T04:37:06.705Z,14.95
2023-08-11T04:47:24.856Z,15.30
2023-08-11T04:57:26.852Z,16.01
2023-08-11T05:07:28.859Z,16.43
2023-08-11T05:17:32.442Z,16.74
2023-08-11T05:27:35.648Z,17.51
2023-08-11T05:37:42.617Z,18.25
2023-08-11T05:47:44.649Z,19.04
2023-08-11T05:57:46.702Z,19.37
2023-08-11T06:08:00.111Z,19.68
2023-08-11T06:18:08.287Z,20.47
2023-08-11T06:28:18.413Z,20.70
2023-08-11T06:38:21.542Z,21.17
2023-08-11T06:48:31.792Z,20.99
2023-08-11T06:58:34.742Z,21.02
2023-08-11T07:08:44.612Z,22.19
2023-08-11T07:18:46.500Z,22.18
2023-08-11T07:28:48.547Z,22.04
2023-08-11T07:39:09.209Z,22.78
2023-08-11T07:49:21.561Z,22.79
2023-08-11T07:59:48.253Z,23.48
2023-08-11T08:09:50.243Z,24.50
2023-08-11T08:19:58.647Z,24.33
2023-08-11T08:30:00.600Z,25.32
2023-08-11T08:40:03.134Z,24.70
2023-08-11T08:50:05.910Z,24.72
2023-08-11T09:00:16.131Z,24.46
2023-08-11T09:10:19.783Z,25.05
2023-08-11T09:20:30.686Z,25.48
2023-08-11T09:30:33.213Z,25.71
2023-08-11T09:40:36.644Z,25.73
2023-08-11T09:50:42.261Z,25.18
2023-08-11T10:00:46.627Z,25.26
2023-08-11T10:10:48.801Z,25.13
2023-08-11T10:20:52.724Z,25.81
2023-08-11T10:31:00.291Z,25.49
2023-08-11T10:41:05.138Z,25.77
2023-08-11T10:51:24.630Z,25.67
2023-08-11T11:01:26.887Z,25.32
2023-08-11T11:11:29.084Z,24.89
2023-08-11T11:21:32.309Z,24.58
2023-08-11T11:31:36.999Z,24.30
2023-08-11T11:41:39.838Z,24.49
2023-08-11T11:51:43.587Z,23.54
2023-08-11T12:01:46.959Z,23.97
2023-08-11T12:11:50.179Z,24.14
2023-08-11T12:21:52.202Z,24.18
2023-08-11T12:31:54.335Z,24.00
2023-08-11T12:41:56.697Z,23.93
2023-08-11T12:51:58.816Z,24.21
2023-08-11T13:02:08.133Z,24.09
2023-08-11T13:12:19.524Z,23.75
2023-08-11T13:22:21.563Z,23.69
2023-08-11T13:32:31.749Z,23.45
2023-08-11T13:42:44.225Z,23.91
2023-08-11T13:52:51.280Z,23.84
2023-08-11T14:03:10.598Z,24.04
2023-08-11T14:13:15.968Z,23.87
2023-08-11T14:23:19.041Z,23.69
2023-08-11T14:33:21.246Z,23.73
2023-08-11T14:43:23.346Z,23.75
2023-08-11T14:53:31.530Z,23.52
2023-08-11T15:03:41.678Z,23.29
2023-08-11T15:13:53.030Z,23.29
2023-08-11T15:23:57.106Z,22.95
2023-08-11T15:34:15.462Z,22.99
2023-08-11T15:44:18.646Z,22.91
2023-08-11T15:54:30.131Z,22.69
2023-08-11T16:04:38.381Z,22.68
2023-08-11T16:14:49.596Z,22.63
2023-08-11T16:24:51.752Z,22.32
2023-08-11T16:34:57.903Z,22.26
2023-08-11T16:44:59.958Z,22.08
2023-08-11T16:55:07.033Z,21.78
2023-08-11T17:05:10.513Z,21.56
2023-08-11T17:15:12.910Z,21.21
2023-08-11T17:25:19.100Z,20.86
2023-08-11T17:35:29.087Z,20.39
2023-08-11T17:45:40.024Z,19.82
2023-08-11T17:55:45.073Z,19.68
2023-08-11T18:05:54.248Z,19.25
2023-08-11T18:16:03.582Z,18.87
2023-08-11T18:26:17.869Z,17.80
2023-08-11T18:36:46.055Z,17.38
2023-08-11T18:46:54.229Z,17.00
2023-08-11T19:07:03.341Z,16.07
2023-08-11T19:17:14.004Z,15.93
2023-08-11T19:27:27.726Z,15.20
2023-08-11T19:37:31.207Z,14.96
2023-08-11T19:47:41.797Z,14.68
2023-08-11T19:57:46.138Z,14.45
2023-08-11T20:07:49.282Z,14.55
2023-08-11T20:17:51.736Z,14.04
2023-08-11T20:27:54.260Z,13.69
2023-08-11T20:38:03.418Z,13.65
2023-08-11T20:48:15.995Z,13.47
2023-08-11T20:58:24.565Z,13.26
2023-08-11T21:08:29.082Z,12.99
2023-08-11T21:18:32.124Z,12.95
2023-08-11T21:28:54.250Z,12.75
2023-08-11T21:39:21.742Z,12.85
2023-08-11T21:49:34.499Z,12.58
2023-08-11T21:59:38.952Z,12.28
2023-08-11T22:09:47.169Z,12.15
2023-08-11T22:19:59.664Z,12.02
2023-08-11T22:30:09.694Z,12.07
2023-08-11T22:40:13.842Z,11.91
2023-08-11T22:50:17.319Z,11.76
2023-08-11T23:00:20.147Z,11.70
2023-08-11T23:10:23.453Z,11.52
2023-08-11T23:20:26.411Z,11.48
2023-08-11T23:30:28.966Z,11.45
2023-08-11T23:40:43.984Z,11.40
2023-08-11T23:50:59.912Z,11.24
